sensor_id;sensor_type;location;lat;lon;timestamp;P1;P2;P0
72023;PMS5003;59889;50.700;5.440;2022-12-18T00:01:30;16;16;
72023;PMS5003;59889;50.700;5.440;2022-12-18T00:03:55;14;14;
72023;PMS5003;59889;50.700;5.440;2022-12-18T00:06:21;17;16;
72023;PMS5003;59889;50.700;5.440;2022-12-18T00:08:46;14;13;
72023;PMS5003;59889;50.700;5.440;2022-12-18T00:11:12;15;15;
72023;PMS5003;59889;50.700;5.440;2022-12-18T00:13:37;15;14;
72023;PMS5003;59889;50.700;5.440;2022-12-18T00:16:02;14;14;
72023;PMS5003;59889;50.700;5.440;2022-12-18T00:18:27;16;15;
72023;PMS5003;59889;50.700;5.440;2022-12-18T00:20:52;15;15;
72023;PMS5003;59889;50.700;5.440;2022-12-18T00:23:18;18;18;
72023;PMS5003;59889;50.700;5.440;2022-12-18T00:25:43;17;15;
72023;PMS5003;59889;50.700;5.440;2022-12-18T00:28:08;15;14;
72023;PMS5003;59889;50.700;5.440;2022-12-18T00:30:33;16;14;
72023;PMS5003;59889;50.700;5.440;2022-12-18T00:32:59;15;15;
72023;PMS5003;59889;50.700;5.440;2022-12-18T00:35:24;14;13;
72023;PMS5003;59889;50.700;5.440;2022-12-18T00:37:49;19;16;
72023;PMS5003;59889;50.700;5.440;2022-12-18T00:40:15;15;14;
72023;PMS5003;59889;50.700;5.440;2022-12-18T00:42:40;12;12;
72023;PMS5003;59889;50.700;5.440;2022-12-18T00:45:06;16;15;
72023;PMS5003;59889;50.700;5.440;2022-12-18T00:47:31;16;16;
72023;PMS5003;59889;50.700;5.440;2022-12-18T00:49:56;18;17;
72023;PMS5003;59889;50.700;5.440;2022-12-18T00:52:21;15;13;
72023;PMS5003;59889;50.700;5.440;2022-12-18T00:54:47;12;12;
72023;PMS5003;59889;50.700;5.440;2022-12-18T00:57:12;15;14;
72023;PMS5003;59889;50.700;5.440;2022-12-18T00:59:37;12;11;
72023;PMS5003;59889;50.700;5.440;2022-12-18T01:02:02;13;13;
72023;PMS5003;59889;50.700;5.440;2022-12-18T01:04:27;13;13;
72023;PMS5003;59889;50.700;5.440;2022-12-18T01:06:52;14;14;
72023;PMS5003;59889;50.700;5.440;2022-12-18T01:09:18;16;15;
72023;PMS5003;59889;50.700;5.440;2022-12-18T01:11:43;15;14;
72023;PMS5003;59889;50.700;5.440;2022-12-18T01:14:09;14;12;
72023;PMS5003;59889;50.700;5.440;2022-12-18T01:16:34;16;15;
72023;PMS5003;59889;50.700;5.440;2022-12-18T01:18:59;12;11;
72023;PMS5003;59889;50.700;5.440;2022-12-18T01:21:25;19;18;
72023;PMS5003;59889;50.700;5.440;2022-12-18T01:23:51;16;14;
72023;PMS5003;59889;50.700;5.440;2022-12-18T01:26:16;16;14;
72023;PMS5003;59889;50.700;5.440;2022-12-18T01:28:42;14;14;
72023;PMS5003;59889;50.700;5.440;2022-12-18T01:31:13;14;13;
72023;PMS5003;59889;50.700;5.440;2022-12-18T01:33:32;18;15;
72023;PMS5003;59889;50.700;5.440;2022-12-18T01:35:57;14;13;
72023;PMS5003;59889;50.700;5.440;2022-12-18T01:38:22;12;12;
72023;PMS5003;59889;50.700;5.440;2022-12-18T01:40:47;13;13;
72023;PMS5003;59889;50.700;5.440;2022-12-18T01:43:12;14;12;
72023;PMS5003;59889;50.700;5.440;2022-12-18T01:45:38;13;13;
72023;PMS5003;59889;50.700;5.440;2022-12-18T01:48:04;15;14;
72023;PMS5003;59889;50.700;5.440;2022-12-18T01:50:29;15;12;
72023;PMS5003;59889;50.700;5.440;2022-12-18T01:52:54;12;11;
72023;PMS5003;59889;50.700;5.440;2022-12-18T01:55:19;12;12;
72023;PMS5003;59889;50.700;5.440;2022-12-18T01:57:44;13;13;
72023;PMS5003;59889;50.700;5.440;2022-12-18T02:00:10;12;11;
72023;PMS5003;59889;50.700;5.440;2022-12-18T02:02:34;12;11;
72023;PMS5003;59889;50.700;5.440;2022-12-18T02:04:59;15;14;
72023;PMS5003;59889;50.700;5.440;2022-12-18T02:07:26;14;14;
72023;PMS5003;59889;50.700;5.440;2022-12-18T02:09:50;12;12;
72023;PMS5003;59889;50.700;5.440;2022-12-18T02:12:16;11;11;
72023;PMS5003;59889;50.700;5.440;2022-12-18T02:14:41;14;13;
72023;PMS5003;59889;50.700;5.440;2022-12-18T02:17:06;16;14;
72023;PMS5003;59889;50.700;5.440;2022-12-18T02:21:58;12;11;
72023;PMS5003;59889;50.700;5.440;2022-12-18T02:24:24;13;12;
72023;PMS5003;59889;50.700;5.440;2022-12-18T02:26:47;13;13;
72023;PMS5003;59889;50.700;5.440;2022-12-18T02:29:13;14;14;
72023;PMS5003;59889;50.700;5.440;2022-12-18T02:31:39;13;13;
72023;PMS5003;59889;50.700;5.440;2022-12-18T02:34:03;14;14;
72023;PMS5003;59889;50.700;5.440;2022-12-18T02:36:28;12;11;
72023;PMS5003;59889;50.700;5.440;2022-12-18T02:38:53;14;12;
72023;PMS5003;59889;50.700;5.440;2022-12-18T02:41:19;14;13;
72023;PMS5003;59889;50.700;5.440;2022-12-18T02:43:46;11;11;
72023;PMS5003;59889;50.700;5.440;2022-12-18T02:48:35;13;13;
72023;PMS5003;59889;50.700;5.440;2022-12-18T02:51:02;11;10;
72023;PMS5003;59889;50.700;5.440;2022-12-18T02:53:27;11;11;
72023;PMS5003;59889;50.700;5.440;2022-12-18T02:55:53;13;13;
72023;PMS5003;59889;50.700;5.440;2022-12-18T02:58:17;13;12;
72023;PMS5003;59889;50.700;5.440;2022-12-18T03:00:41;13;12;
72023;PMS5003;59889;50.700;5.440;2022-12-18T03:03:06;12;12;
72023;PMS5003;59889;50.700;5.440;2022-12-18T03:05:33;15;13;
72023;PMS5003;59889;50.700;5.440;2022-12-18T03:07:57;16;15;
72023;PMS5003;59889;50.700;5.440;2022-12-18T03:10:23;13;12;
72023;PMS5003;59889;50.700;5.440;2022-12-18T03:12:49;12;10;
72023;PMS5003;59889;50.700;5.440;2022-12-18T03:15:13;10;10;
72023;PMS5003;59889;50.700;5.440;2022-12-18T03:17:40;12;11;
72023;PMS5003;59889;50.700;5.440;2022-12-18T03:20:04;13;12;
72023;PMS5003;59889;50.700;5.440;2022-12-18T03:22:29;14;13;
72023;PMS5003;59889;50.700;5.440;2022-12-18T03:24:54;13;13;
72023;PMS5003;59889;50.700;5.440;2022-12-18T03:27:19;12;11;
72023;PMS5003;59889;50.700;5.440;2022-12-18T03:29:45;11;11;
72023;PMS5003;59889;50.700;5.440;2022-12-18T03:32:10;14;12;
72023;PMS5003;59889;50.700;5.440;2022-12-18T03:34:34;12;12;
72023;PMS5003;59889;50.700;5.440;2022-12-18T03:36:59;14;12;
72023;PMS5003;59889;50.700;5.440;2022-12-18T03:39:24;13;12;
72023;PMS5003;59889;50.700;5.440;2022-12-18T03:41:51;11;11;
72023;PMS5003;59889;50.700;5.440;2022-12-18T03:44:16;11;10;
72023;PMS5003;59889;50.700;5.440;2022-12-18T03:46:40;13;13;
72023;PMS5003;59889;50.700;5.440;2022-12-18T03:49:07;12;12;
72023;PMS5003;59889;50.700;5.440;2022-12-18T03:51:32;13;12;
72023;PMS5003;59889;50.700;5.440;2022-12-18T03:53:57;11;10;
72023;PMS5003;59889;50.700;5.440;2022-12-18T03:56:21;11;11;
72023;PMS5003;59889;50.700;5.440;2022-12-18T03:58:46;14;13;
72023;PMS5003;59889;50.700;5.440;2022-12-18T04:01:12;14;13;
72023;PMS5003;59889;50.700;5.440;2022-12-18T04:03:36;14;12;
72023;PMS5003;59889;50.700;5.440;2022-12-18T04:06:02;11;11;
72023;PMS5003;59889;50.700;5.440;2022-12-18T04:08:26;14;13;
72023;PMS5003;59889;50.700;5.440;2022-12-18T04:10:52;11;11;
72023;PMS5003;59889;50.700;5.440;2022-12-18T04:13:21;10;10;
72023;PMS5003;59889;50.700;5.440;2022-12-18T04:15:42;15;13;
72023;PMS5003;59889;50.700;5.440;2022-12-18T04:18:08;16;14;
72023;PMS5003;59889;50.700;5.440;2022-12-18T04:20:33;10;9;
72023;PMS5003;59889;50.700;5.440;2022-12-18T04:22:58;10;10;
72023;PMS5003;59889;50.700;5.440;2022-12-18T04:25:23;11;10;
72023;PMS5003;59889;50.700;5.440;2022-12-18T04:27:49;10;10;
72023;PMS5003;59889;50.700;5.440;2022-12-18T04:30:14;11;9;
72023;PMS5003;59889;50.700;5.440;2022-12-18T04:32:39;11;11;
72023;PMS5003;59889;50.700;5.440;2022-12-18T04:35:04;11;11;
72023;PMS5003;59889;50.700;5.440;2022-12-18T04:37:29;11;11;
72023;PMS5003;59889;50.700;5.440;2022-12-18T04:39:54;12;11;
72023;PMS5003;59889;50.700;5.440;2022-12-18T04:42:20;11;11;
72023;PMS5003;59889;50.700;5.440;2022-12-18T04:44:45;9;9;
72023;PMS5003;59889;50.700;5.440;2022-12-18T04:47:10;9;9;
72023;PMS5003;59889;50.700;5.440;2022-12-18T04:49:35;11;11;
72023;PMS5003;59889;50.700;5.440;2022-12-18T04:52:01;12;12;
72023;PMS5003;59889;50.700;5.440;2022-12-18T04:54:26;12;11;
72023;PMS5003;59889;50.700;5.440;2022-12-18T04:56:52;11;10;
72023;PMS5003;59889;50.700;5.440;2022-12-18T04:59:17;12;11;
72023;PMS5003;59889;50.700;5.440;2022-12-18T05:01:42;14;12;
72023;PMS5003;59889;50.700;5.440;2022-12-18T05:04:07;10;10;
72023;PMS5003;59889;50.700;5.440;2022-12-18T05:06:32;11;10;
72023;PMS5003;59889;50.700;5.440;2022-12-18T05:08:58;11;11;
72023;PMS5003;59889;50.700;5.440;2022-12-18T05:11:23;9;9;
72023;PMS5003;59889;50.700;5.440;2022-12-18T05:13:48;11;9;
72023;PMS5003;59889;50.700;5.440;2022-12-18T05:16:14;9;8;
72023;PMS5003;59889;50.700;5.440;2022-12-18T05:18:39;11;10;
72023;PMS5003;59889;50.700;5.440;2022-12-18T05:21:04;13;13;
72023;PMS5003;59889;50.700;5.440;2022-12-18T05:23:30;10;10;
72023;PMS5003;59889;50.700;5.440;2022-12-18T05:25:55;10;10;
72023;PMS5003;59889;50.700;5.440;2022-12-18T05:28:20;11;10;
72023;PMS5003;59889;50.700;5.440;2022-12-18T05:30:47;12;11;
72023;PMS5003;59889;50.700;5.440;2022-12-18T05:33:10;11;10;
72023;PMS5003;59889;50.700;5.440;2022-12-18T05:35:35;9;9;
72023;PMS5003;59889;50.700;5.440;2022-12-18T05:38:00;8;8;
72023;PMS5003;59889;50.700;5.440;2022-12-18T05:40:25;10;9;
72023;PMS5003;59889;50.700;5.440;2022-12-18T05:42:51;13;11;
72023;PMS5003;59889;50.700;5.440;2022-12-18T05:45:16;9;9;
72023;PMS5003;59889;50.700;5.440;2022-12-18T05:47:42;9;8;
72023;PMS5003;59889;50.700;5.440;2022-12-18T05:50:07;11;10;
72023;PMS5003;59889;50.700;5.440;2022-12-18T05:52:32;9;8;
72023;PMS5003;59889;50.700;5.440;2022-12-18T05:54:57;12;10;
72023;PMS5003;59889;50.700;5.440;2022-12-18T05:57:22;9;9;
72023;PMS5003;59889;50.700;5.440;2022-12-18T05:59:48;11;10;
72023;PMS5003;59889;50.700;5.440;2022-12-18T06:02:13;10;10;
72023;PMS5003;59889;50.700;5.440;2022-12-18T06:04:39;9;9;
72023;PMS5003;59889;50.700;5.440;2022-12-18T06:07:03;11;9;
72023;PMS5003;59889;50.700;5.440;2022-12-18T06:09:28;10;9;
72023;PMS5003;59889;50.700;5.440;2022-12-18T06:11:53;12;10;
72023;PMS5003;59889;50.700;5.440;2022-12-18T06:14:19;12;11;
72023;PMS5003;59889;50.700;5.440;2022-12-18T06:16:44;8;8;
72023;PMS5003;59889;50.700;5.440;2022-12-18T06:19:13;9;9;
72023;PMS5003;59889;50.700;5.440;2022-12-18T06:21:34;9;8;
72023;PMS5003;59889;50.700;5.440;2022-12-18T06:23:59;7;7;
72023;PMS5003;59889;50.700;5.440;2022-12-18T06:26:24;10;9;
72023;PMS5003;59889;50.700;5.440;2022-12-18T06:28:50;10;9;
72023;PMS5003;59889;50.700;5.440;2022-12-18T06:31:15;10;9;
72023;PMS5003;59889;50.700;5.440;2022-12-18T06:33:40;9;8;
72023;PMS5003;59889;50.700;5.440;2022-12-18T06:36:06;11;11;
72023;PMS5003;59889;50.700;5.440;2022-12-18T06:38:31;11;10;
72023;PMS5003;59889;50.700;5.440;2022-12-18T06:40:55;12;10;
72023;PMS5003;59889;50.700;5.440;2022-12-18T06:43:21;11;11;
72023;PMS5003;59889;50.700;5.440;2022-12-18T06:45:46;10;10;
72023;PMS5003;59889;50.700;5.440;2022-12-18T06:48:11;12;11;
72023;PMS5003;59889;50.700;5.440;2022-12-18T06:50:36;10;10;
72023;PMS5003;59889;50.700;5.440;2022-12-18T06:53:01;9;8;
72023;PMS5003;59889;50.700;5.440;2022-12-18T06:55:27;11;10;
72023;PMS5003;59889;50.700;5.440;2022-12-18T06:57:52;13;12;
72023;PMS5003;59889;50.700;5.440;2022-12-18T07:00:18;11;11;
72023;PMS5003;59889;50.700;5.440;2022-12-18T07:02:43;11;10;
72023;PMS5003;59889;50.700;5.440;2022-12-18T07:05:08;11;11;
72023;PMS5003;59889;50.700;5.440;2022-12-18T07:07:33;10;9;
72023;PMS5003;59889;50.700;5.440;2022-12-18T07:09:58;10;10;
72023;PMS5003;59889;50.700;5.440;2022-12-18T07:12:24;9;9;
72023;PMS5003;59889;50.700;5.440;2022-12-18T07:14:49;12;11;
72023;PMS5003;59889;50.700;5.440;2022-12-18T07:17:14;11;11;
72023;PMS5003;59889;50.700;5.440;2022-12-18T07:19:49;13;11;
72023;PMS5003;59889;50.700;5.440;2022-12-18T07:22:04;14;13;
72023;PMS5003;59889;50.700;5.440;2022-12-18T07:24:30;10;10;
72023;PMS5003;59889;50.700;5.440;2022-12-18T07:26:55;14;14;
72023;PMS5003;59889;50.700;5.440;2022-12-18T07:29:20;15;15;
72023;PMS5003;59889;50.700;5.440;2022-12-18T07:31:46;12;12;
72023;PMS5003;59889;50.700;5.440;2022-12-18T07:34:11;12;12;
72023;PMS5003;59889;50.700;5.440;2022-12-18T07:36:36;10;10;
72023;PMS5003;59889;50.700;5.440;2022-12-18T07:39:02;15;15;
72023;PMS5003;59889;50.700;5.440;2022-12-18T07:41:27;16;16;
72023;PMS5003;59889;50.700;5.440;2022-12-18T07:43:54;17;13;
72023;PMS5003;59889;50.700;5.440;2022-12-18T07:46:18;13;13;
72023;PMS5003;59889;50.700;5.440;2022-12-18T07:48:43;15;14;
72023;PMS5003;59889;50.700;5.440;2022-12-18T07:51:08;12;12;
72023;PMS5003;59889;50.700;5.440;2022-12-18T07:53:35;14;14;
72023;PMS5003;59889;50.700;5.440;2022-12-18T07:56:00;11;10;
72023;PMS5003;59889;50.700;5.440;2022-12-18T07:58:24;16;15;
72023;PMS5003;59889;50.700;5.440;2022-12-18T08:00:50;14;12;
72023;PMS5003;59889;50.700;5.440;2022-12-18T08:03:15;13;13;
72023;PMS5003;59889;50.700;5.440;2022-12-18T08:05:40;11;10;
72023;PMS5003;59889;50.700;5.440;2022-12-18T08:08:05;10;10;
72023;PMS5003;59889;50.700;5.440;2022-12-18T08:10:31;14;11;
72023;PMS5003;59889;50.700;5.440;2022-12-18T08:12:56;13;11;
72023;PMS5003;59889;50.700;5.440;2022-12-18T08:15:21;14;11;
72023;PMS5003;59889;50.700;5.440;2022-12-18T08:17:46;14;12;
72023;PMS5003;59889;50.700;5.440;2022-12-18T08:20:11;13;11;
72023;PMS5003;59889;50.700;5.440;2022-12-18T08:22:36;11;11;
72023;PMS5003;59889;50.700;5.440;2022-12-18T08:25:02;15;12;
72023;PMS5003;59889;50.700;5.440;2022-12-18T08:27:27;10;10;
72023;PMS5003;59889;50.700;5.440;2022-12-18T08:29:52;11;11;
72023;PMS5003;59889;50.700;5.440;2022-12-18T08:32:17;11;11;
72023;PMS5003;59889;50.700;5.440;2022-12-18T08:34:42;11;11;
72023;PMS5003;59889;50.700;5.440;2022-12-18T08:37:08;9;9;
72023;PMS5003;59889;50.700;5.440;2022-12-18T08:39:33;11;9;
72023;PMS5003;59889;50.700;5.440;2022-12-18T08:41:58;9;9;
72023;PMS5003;59889;50.700;5.440;2022-12-18T08:44:24;11;11;
72023;PMS5003;59889;50.700;5.440;2022-12-18T08:46:49;13;10;
72023;PMS5003;59889;50.700;5.440;2022-12-18T08:49:14;11;11;
72023;PMS5003;59889;50.700;5.440;2022-12-18T08:51:39;11;10;
72023;PMS5003;59889;50.700;5.440;2022-12-18T08:54:05;9;8;
72023;PMS5003;59889;50.700;5.440;2022-12-18T08:56:30;11;10;
72023;PMS5003;59889;50.700;5.440;2022-12-18T08:58:55;10;9;
72023;PMS5003;59889;50.700;5.440;2022-12-18T09:01:20;10;9;
72023;PMS5003;59889;50.700;5.440;2022-12-18T09:03:46;10;9;
72023;PMS5003;59889;50.700;5.440;2022-12-18T09:06:13;12;11;
72023;PMS5003;59889;50.700;5.440;2022-12-18T09:08:36;8;8;
72023;PMS5003;59889;50.700;5.440;2022-12-18T09:11:02;13;9;
72023;PMS5003;59889;50.700;5.440;2022-12-18T09:13:27;13;11;
72023;PMS5003;59889;50.700;5.440;2022-12-18T09:15:53;12;11;
72023;PMS5003;59889;50.700;5.440;2022-12-18T09:18:18;10;10;
72023;PMS5003;59889;50.700;5.440;2022-12-18T09:20:42;10;9;
72023;PMS5003;59889;50.700;5.440;2022-12-18T09:23:08;9;9;
72023;PMS5003;59889;50.700;5.440;2022-12-18T09:25:33;10;9;
72023;PMS5003;59889;50.700;5.440;2022-12-18T09:27:58;9;8;
72023;PMS5003;59889;50.700;5.440;2022-12-18T09:30:23;9;8;
72023;PMS5003;59889;50.700;5.440;2022-12-18T09:32:48;11;9;
72023;PMS5003;59889;50.700;5.440;2022-12-18T09:35:13;10;10;
72023;PMS5003;59889;50.700;5.440;2022-12-18T09:37:39;11;11;
72023;PMS5003;59889;50.700;5.440;2022-12-18T09:40:04;10;8;
72023;PMS5003;59889;50.700;5.440;2022-12-18T09:42:29;9;7;
72023;PMS5003;59889;50.700;5.440;2022-12-18T09:44:54;11;9;
72023;PMS5003;59889;50.700;5.440;2022-12-18T09:47:20;9;9;
72023;PMS5003;59889;50.700;5.440;2022-12-18T09:49:45;9;8;
72023;PMS5003;59889;50.700;5.440;2022-12-18T09:52:12;9;9;
72023;PMS5003;59889;50.700;5.440;2022-12-18T09:54:36;9;9;
72023;PMS5003;59889;50.700;5.440;2022-12-18T09:57:00;10;10;
72023;PMS5003;59889;50.700;5.440;2022-12-18T09:59:26;10;10;
72023;PMS5003;59889;50.700;5.440;2022-12-18T10:01:51;9;9;
72023;PMS5003;59889;50.700;5.440;2022-12-18T10:04:16;10;8;
72023;PMS5003;59889;50.700;5.440;2022-12-18T10:06:43;9;8;
72023;PMS5003;59889;50.700;5.440;2022-12-18T10:09:07;9;8;
72023;PMS5003;59889;50.700;5.440;2022-12-18T10:11:35;9;9;
72023;PMS5003;59889;50.700;5.440;2022-12-18T10:13:57;11;10;
72023;PMS5003;59889;50.700;5.440;2022-12-18T10:16:23;15;14;
72023;PMS5003;59889;50.700;5.440;2022-12-18T10:18:55;16;15;
72023;PMS5003;59889;50.700;5.440;2022-12-18T10:21:13;15;14;
72023;PMS5003;59889;50.700;5.440;2022-12-18T10:23:38;14;14;
72023;PMS5003;59889;50.700;5.440;2022-12-18T10:26:04;15;15;
72023;PMS5003;59889;50.700;5.440;2022-12-18T10:28:29;18;16;
72023;PMS5003;59889;50.700;5.440;2022-12-18T10:30:53;15;15;
72023;PMS5003;59889;50.700;5.440;2022-12-18T10:33:19;20;18;
72023;PMS5003;59889;50.700;5.440;2022-12-18T10:35:44;20;19;
72023;PMS5003;59889;50.700;5.440;2022-12-18T10:43:05;24;22;
72023;PMS5003;59889;50.700;5.440;2022-12-18T10:45:27;22;20;
72023;PMS5003;59889;50.700;5.440;2022-12-18T10:47:53;22;20;
72023;PMS5003;59889;50.700;5.440;2022-12-18T10:50:18;20;20;
72023;PMS5003;59889;50.700;5.440;2022-12-18T10:52:43;26;22;
72023;PMS5003;59889;50.700;5.440;2022-12-18T10:55:12;24;19;
72023;PMS5003;59889;50.700;5.440;2022-12-18T10:57:36;22;20;
72023;PMS5003;59889;50.700;5.440;2022-12-18T11:00:19;21;20;
72023;PMS5003;59889;50.700;5.440;2022-12-18T11:02:27;24;22;
72023;PMS5003;59889;50.700;5.440;2022-12-18T11:04:52;20;20;
72023;PMS5003;59889;50.700;5.440;2022-12-18T11:07:17;25;23;
72023;PMS5003;59889;50.700;5.440;2022-12-18T11:09:43;24;23;
72023;PMS5003;59889;50.700;5.440;2022-12-18T11:14:41;22;21;
72023;PMS5003;59889;50.700;5.440;2022-12-18T11:16:59;27;24;
72023;PMS5003;59889;50.700;5.440;2022-12-18T11:19:28;26;23;
72023;PMS5003;59889;50.700;5.440;2022-12-18T11:21:50;27;27;
72023;PMS5003;59889;50.700;5.440;2022-12-18T11:24:19;26;24;
72023;PMS5003;59889;50.700;5.440;2022-12-18T11:26:41;25;24;
72023;PMS5003;59889;50.700;5.440;2022-12-18T11:29:08;26;24;
72023;PMS5003;59889;50.700;5.440;2022-12-18T11:31:32;23;22;
72023;PMS5003;59889;50.700;5.440;2022-12-18T11:34:00;27;24;
72023;PMS5003;59889;50.700;5.440;2022-12-18T11:36:23;27;26;
72023;PMS5003;59889;50.700;5.440;2022-12-18T11:38:49;25;24;
72023;PMS5003;59889;50.700;5.440;2022-12-18T11:41:16;25;23;
72023;PMS5003;59889;50.700;5.440;2022-12-18T11:43:40;23;22;
72023;PMS5003;59889;50.700;5.440;2022-12-18T11:46:06;24;23;
72023;PMS5003;59889;50.700;5.440;2022-12-18T11:48:32;25;25;
72023;PMS5003;59889;50.700;5.440;2022-12-18T11:50:57;22;19;
72023;PMS5003;59889;50.700;5.440;2022-12-18T11:53:22;24;22;
72023;PMS5003;59889;50.700;5.440;2022-12-18T11:55:49;23;20;
72023;PMS5003;59889;50.700;5.440;2022-12-18T11:58:14;21;21;
72023;PMS5003;59889;50.700;5.440;2022-12-18T12:00:39;26;22;
72023;PMS5003;59889;50.700;5.440;2022-12-18T12:03:11;24;24;
72023;PMS5003;59889;50.700;5.440;2022-12-18T12:05:32;22;21;
72023;PMS5003;59889;50.700;5.440;2022-12-18T12:07:55;20;19;
72023;PMS5003;59889;50.700;5.440;2022-12-18T12:10:24;20;19;
72023;PMS5003;59889;50.700;5.440;2022-12-18T12:12:49;23;22;
72023;PMS5003;59889;50.700;5.440;2022-12-18T12:15:12;24;21;
72023;PMS5003;59889;50.700;5.440;2022-12-18T12:17:37;21;20;
72023;PMS5003;59889;50.700;5.440;2022-12-18T12:20:02;23;22;
72023;PMS5003;59889;50.700;5.440;2022-12-18T12:22:29;22;20;
72023;PMS5003;59889;50.700;5.440;2022-12-18T12:24:57;19;17;
72023;PMS5003;59889;50.700;5.440;2022-12-18T12:27:19;24;22;
72023;PMS5003;59889;50.700;5.440;2022-12-18T12:29:46;21;18;
72023;PMS5003;59889;50.700;5.440;2022-12-18T12:32:13;20;19;
72023;PMS5003;59889;50.700;5.440;2022-12-18T12:34:34;20;18;
72023;PMS5003;59889;50.700;5.440;2022-12-18T12:37:04;17;17;
72023;PMS5003;59889;50.700;5.440;2022-12-18T12:39:26;21;20;
72023;PMS5003;59889;50.700;5.440;2022-12-18T12:41:50;19;17;
72023;PMS5003;59889;50.700;5.440;2022-12-18T12:44:17;20;19;
72023;PMS5003;59889;50.700;5.440;2022-12-18T12:46:41;16;14;
72023;PMS5003;59889;50.700;5.440;2022-12-18T12:49:09;19;18;
72023;PMS5003;59889;50.700;5.440;2022-12-18T12:51:34;22;21;
72023;PMS5003;59889;50.700;5.440;2022-12-18T12:53:58;22;20;
72023;PMS5003;59889;50.700;5.440;2022-12-18T12:56:24;20;19;
72023;PMS5003;59889;50.700;5.440;2022-12-18T12:58:52;18;17;
72023;PMS5003;59889;50.700;5.440;2022-12-18T13:01:17;16;16;
72023;PMS5003;59889;50.700;5.440;2022-12-18T13:03:42;18;16;
72023;PMS5003;59889;50.700;5.440;2022-12-18T13:06:07;17;16;
72023;PMS5003;59889;50.700;5.440;2022-12-18T13:08:31;18;17;
72023;PMS5003;59889;50.700;5.440;2022-12-18T13:10:57;17;16;
72023;PMS5003;59889;50.700;5.440;2022-12-18T13:13:21;18;17;
72023;PMS5003;59889;50.700;5.440;2022-12-18T13:15:47;19;19;
72023;PMS5003;59889;50.700;5.440;2022-12-18T13:18:17;22;20;
72023;PMS5003;59889;50.700;5.440;2022-12-18T13:20:40;16;16;
72023;PMS5003;59889;50.700;5.440;2022-12-18T13:25:31;20;17;
72023;PMS5003;59889;50.700;5.440;2022-12-18T13:27:57;20;20;
72023;PMS5003;59889;50.700;5.440;2022-12-18T13:32:46;16;15;
72023;PMS5003;59889;50.700;5.440;2022-12-18T13:37:42;19;17;
72023;PMS5003;59889;50.700;5.440;2022-12-18T13:40:05;19;17;
72023;PMS5003;59889;50.700;5.440;2022-12-18T13:42:31;17;16;
72023;PMS5003;59889;50.700;5.440;2022-12-18T13:44:53;14;14;
72023;PMS5003;59889;50.700;5.440;2022-12-18T13:49:44;15;15;
72023;PMS5003;59889;50.700;5.440;2022-12-18T13:52:15;14;14;
72023;PMS5003;59889;50.700;5.440;2022-12-18T13:54:35;17;16;
72023;PMS5003;59889;50.700;5.440;2022-12-18T13:57:00;20;19;
72023;PMS5003;59889;50.700;5.440;2022-12-18T13:59:25;16;15;
72023;PMS5003;59889;50.700;5.440;2022-12-18T14:01:52;19;17;
72023;PMS5003;59889;50.700;5.440;2022-12-18T14:04:18;18;17;
72023;PMS5003;59889;50.700;5.440;2022-12-18T14:06:41;17;15;
72023;PMS5003;59889;50.700;5.440;2022-12-18T14:09:10;18;16;
72023;PMS5003;59889;50.700;5.440;2022-12-18T14:11:32;16;15;
72023;PMS5003;59889;50.700;5.440;2022-12-18T14:13:57;14;13;
72023;PMS5003;59889;50.700;5.440;2022-12-18T14:16:22;15;15;
72023;PMS5003;59889;50.700;5.440;2022-12-18T14:18:49;15;13;
72023;PMS5003;59889;50.700;5.440;2022-12-18T14:21:17;19;15;
72023;PMS5003;59889;50.700;5.440;2022-12-18T14:23:41;15;14;
72023;PMS5003;59889;50.700;5.440;2022-12-18T14:28:30;13;13;
72023;PMS5003;59889;50.700;5.440;2022-12-18T14:30:55;13;12;
72023;PMS5003;59889;50.700;5.440;2022-12-18T14:33:21;22;19;
72023;PMS5003;59889;50.700;5.440;2022-12-18T14:38:19;13;13;
72023;PMS5003;59889;50.700;5.440;2022-12-18T14:40:37;14;12;
72023;PMS5003;59889;50.700;5.440;2022-12-18T14:43:02;14;14;
72023;PMS5003;59889;50.700;5.440;2022-12-18T14:47:53;17;14;
72023;PMS5003;59889;50.700;5.440;2022-12-18T14:50:18;15;14;
72023;PMS5003;59889;50.700;5.440;2022-12-18T14:52:44;12;12;
72023;PMS5003;59889;50.700;5.440;2022-12-18T14:55:14;16;14;
72023;PMS5003;59889;50.700;5.440;2022-12-18T14:57:35;14;13;
72023;PMS5003;59889;50.700;5.440;2022-12-18T15:00:03;13;12;
72023;PMS5003;59889;50.700;5.440;2022-12-18T15:02:25;16;14;
72023;PMS5003;59889;50.700;5.440;2022-12-18T15:07:15;15;13;
72023;PMS5003;59889;50.700;5.440;2022-12-18T15:09:41;14;13;
72023;PMS5003;59889;50.700;5.440;2022-12-18T15:14:33;14;14;
72023;PMS5003;59889;50.700;5.440;2022-12-18T15:16:57;15;14;
72023;PMS5003;59889;50.700;5.440;2022-12-18T15:19:22;13;13;
72023;PMS5003;59889;50.700;5.440;2022-12-18T15:21:47;14;12;
72023;PMS5003;59889;50.700;5.440;2022-12-18T15:24:16;13;12;
72023;PMS5003;59889;50.700;5.440;2022-12-18T15:26:38;13;13;
72023;PMS5003;59889;50.700;5.440;2022-12-18T15:29:03;14;13;
72023;PMS5003;59889;50.700;5.440;2022-12-18T15:31:29;15;13;
72023;PMS5003;59889;50.700;5.440;2022-12-18T15:34:01;14;12;
72023;PMS5003;59889;50.700;5.440;2022-12-18T15:36:19;15;15;
72023;PMS5003;59889;50.700;5.440;2022-12-18T15:38:45;14;11;
72023;PMS5003;59889;50.700;5.440;2022-12-18T15:41:11;14;13;
72023;PMS5003;59889;50.700;5.440;2022-12-18T15:43:37;22;21;
72023;PMS5003;59889;50.700;5.440;2022-12-18T15:46:00;20;19;
72023;PMS5003;59889;50.700;5.440;2022-12-18T15:48:26;23;21;
72023;PMS5003;59889;50.700;5.440;2022-12-18T15:50:51;23;22;
72023;PMS5003;59889;50.700;5.440;2022-12-18T15:53:16;31;31;
72023;PMS5003;59889;50.700;5.440;2022-12-18T15:55:42;28;27;
72023;PMS5003;59889;50.700;5.440;2022-12-18T15:58:08;41;36;
72023;PMS5003;59889;50.700;5.440;2022-12-18T16:00:34;37;35;
72023;PMS5003;59889;50.700;5.440;2022-12-18T16:02:59;42;41;
72023;PMS5003;59889;50.700;5.440;2022-12-18T16:05:25;43;37;
72023;PMS5003;59889;50.700;5.440;2022-12-18T16:07:50;41;37;
72023;PMS5003;59889;50.700;5.440;2022-12-18T16:10:16;28;28;
72023;PMS5003;59889;50.700;5.440;2022-12-18T16:12:41;34;30;
72023;PMS5003;59889;50.700;5.440;2022-12-18T16:15:07;35;33;
72023;PMS5003;59889;50.700;5.440;2022-12-18T16:17:32;28;28;
72023;PMS5003;59889;50.700;5.440;2022-12-18T16:19:58;35;33;
72023;PMS5003;59889;50.700;5.440;2022-12-18T16:22:24;34;33;
72023;PMS5003;59889;50.700;5.440;2022-12-18T16:24:49;34;31;
72023;PMS5003;59889;50.700;5.440;2022-12-18T16:27:14;36;31;
72023;PMS5003;59889;50.700;5.440;2022-12-18T16:29:39;29;27;
72023;PMS5003;59889;50.700;5.440;2022-12-18T16:32:05;28;26;
72023;PMS5003;59889;50.700;5.440;2022-12-18T16:34:31;32;27;
72023;PMS5003;59889;50.700;5.440;2022-12-18T16:36:56;27;26;
72023;PMS5003;59889;50.700;5.440;2022-12-18T16:39:20;32;25;
72023;PMS5003;59889;50.700;5.440;2022-12-18T16:41:46;26;23;